sensor_id;sensor_type;location;lat;lon;timestamp;P1;durP1;ratioP1;P2;durP2;ratioP2
69053;SDS011;56125;52.242;4.756;2024-02-21T00:03:19;5.07;;;1.33;;
69053;SDS011;56125;52.242;4.756;2024-02-21T00:08:20;4.13;;;1.52;;
69053;SDS011;56125;52.242;4.756;2024-02-21T00:13:21;3.53;;;1.00;;
69053;SDS011;56125;52.242;4.756;2024-02-21T00:18:22;4.38;;;1.35;;
69053;SDS011;56125;52.242;4.756;2024-02-21T00:23:24;4.10;;;1.50;;
69053;SDS011;56125;52.242;4.756;2024-02-21T00:28:25;3.67;;;1.20;;
69053;SDS011;56125;52.242;4.756;2024-02-21T00:33:26;4.60;;;1.20;;
69053;SDS011;56125;52.242;4.756;2024-02-21T00:38:27;3.00;;;1.20;;
69053;SDS011;56125;52.242;4.756;2024-02-21T00:43:28;2.30;;;1.17;;
69053;SDS011;56125;52.242;4.756;2024-02-21T00:48:29;3.90;;;1.27;;
69053;SDS011;56125;52.242;4.756;2024-02-21T00:53:30;3.90;;;1.37;;
69053;SDS011;56125;52.242;4.756;2024-02-21T00:58:31;2.47;;;0.98;;
69053;SDS011;56125;52.242;4.756;2024-02-21T01:03:32;4.00;;;1.27;;
69053;SDS011;56125;52.242;4.756;2024-02-21T01:08:33;4.10;;;1.27;;
69053;SDS011;56125;52.242;4.756;2024-02-21T01:13:34;2.87;;;1.17;;
69053;SDS011;56125;52.242;4.756;2024-02-21T01:18:37;3.00;;;1.33;;
69053;SDS011;56125;52.242;4.756;2024-02-21T01:23:39;2.23;;;0.90;;
69053;SDS011;56125;52.242;4.756;2024-02-21T01:28:41;4.47;;;1.25;;
69053;SDS011;56125;52.242;4.756;2024-02-21T01:33:42;3.67;;;1.33;;
69053;SDS011;56125;52.242;4.756;2024-02-21T01:38:43;3.05;;;1.17;;
69053;SDS011;56125;52.242;4.756;2024-02-21T01:43:44;4.17;;;1.27;;
69053;SDS011;56125;52.242;4.756;2024-02-21T01:48:45;4.22;;;1.15;;
69053;SDS011;56125;52.242;4.756;2024-02-21T01:53:46;3.43;;;1.33;;
69053;SDS011;56125;52.242;4.756;2024-02-21T01:58:48;3.38;;;1.10;;
69053;SDS011;56125;52.242;4.756;2024-02-21T02:03:50;5.87;;;1.90;;
69053;SDS011;56125;52.242;4.756;2024-02-21T02:08:51;3.55;;;1.02;;
69053;SDS011;56125;52.242;4.756;2024-02-21T02:13:53;6.60;;;1.23;;
69053;SDS011;56125;52.242;4.756;2024-02-21T02:18:55;4.90;;;1.48;;
69053;SDS011;56125;52.242;4.756;2024-02-21T02:23:56;5.80;;;1.40;;
69053;SDS011;56125;52.242;4.756;2024-02-21T02:28:57;5.75;;;1.30;;
69053;SDS011;56125;52.242;4.756;2024-02-21T02:33:58;4.40;;;1.33;;
69053;SDS011;56125;52.242;4.756;2024-02-21T02:38:59;4.40;;;1.15;;
69053;SDS011;56125;52.242;4.756;2024-02-21T02:44:00;4.37;;;1.40;;
69053;SDS011;56125;52.242;4.756;2024-02-21T02:49:01;3.33;;;1.20;;
69053;SDS011;56125;52.242;4.756;2024-02-21T02:54:02;2.50;;;1.40;;
69053;SDS011;56125;52.242;4.756;2024-02-21T02:59:04;4.88;;;1.35;;
69053;SDS011;56125;52.242;4.756;2024-02-21T03:04:05;2.60;;;1.57;;
69053;SDS011;56125;52.242;4.756;2024-02-21T03:09:06;5.38;;;1.25;;
69053;SDS011;56125;52.242;4.756;2024-02-21T03:14:09;5.90;;;1.60;;
69053;SDS011;56125;52.242;4.756;2024-02-21T03:19:10;5.28;;;1.20;;
69053;SDS011;56125;52.242;4.756;2024-02-21T03:24:11;5.40;;;1.47;;
69053;SDS011;56125;52.242;4.756;2024-02-21T03:29:12;4.82;;;1.40;;
69053;SDS011;56125;52.242;4.756;2024-02-21T03:34:14;6.37;;;1.53;;
69053;SDS011;56125;52.242;4.756;2024-02-21T03:39:15;6.38;;;1.38;;
69053;SDS011;56125;52.242;4.756;2024-02-21T03:44:16;4.10;;;1.53;;
69053;SDS011;56125;52.242;4.756;2024-02-21T03:49:18;2.45;;;1.35;;
69053;SDS011;56125;52.242;4.756;2024-02-21T03:54:19;3.03;;;1.20;;
69053;SDS011;56125;52.242;4.756;2024-02-21T03:59:20;4.28;;;1.15;;
69053;SDS011;56125;52.242;4.756;2024-02-21T04:04:23;5.27;;;1.67;;
69053;SDS011;56125;52.242;4.756;2024-02-21T04:09:24;5.25;;;1.50;;
69053;SDS011;56125;52.242;4.756;2024-02-21T04:14:25;2.37;;;1.27;;
69053;SDS011;56125;52.242;4.756;2024-02-21T04:19:26;4.78;;;1.20;;
69053;SDS011;56125;52.242;4.756;2024-02-21T04:24:27;4.43;;;1.30;;
69053;SDS011;56125;52.242;4.756;2024-02-21T04:29:28;4.35;;;1.65;;
69053;SDS011;56125;52.242;4.756;2024-02-21T04:34:29;3.17;;;1.30;;
69053;SDS011;56125;52.242;4.756;2024-02-21T04:39:30;3.08;;;1.10;;
69053;SDS011;56125;52.242;4.756;2024-02-21T04:44:31;2.97;;;1.43;;
69053;SDS011;56125;52.242;4.756;2024-02-21T04:49:32;2.75;;;1.55;;
69053;SDS011;56125;52.242;4.756;2024-02-21T04:54:34;3.57;;;1.50;;
69053;SDS011;56125;52.242;4.756;2024-02-21T04:59:38;4.60;;;1.63;;
69053;SDS011;56125;52.242;4.756;2024-02-21T05:04:39;4.23;;;1.77;;
69053;SDS011;56125;52.242;4.756;2024-02-21T05:09:42;3.92;;;1.50;;
69053;SDS011;56125;52.242;4.756;2024-02-21T05:14:43;3.90;;;1.17;;
69053;SDS011;56125;52.242;4.756;2024-02-21T05:19:44;2.95;;;1.13;;
69053;SDS011;56125;52.242;4.756;2024-02-21T05:24:45;2.57;;;1.40;;
69053;SDS011;56125;52.242;4.756;2024-02-21T05:29:46;4.57;;;1.35;;
69053;SDS011;56125;52.242;4.756;2024-02-21T05:34:49;2.17;;;1.30;;
69053;SDS011;56125;52.242;4.756;2024-02-21T05:39:51;2.75;;;1.30;;
69053;SDS011;56125;52.242;4.756;2024-02-21T05:44:52;4.20;;;1.40;;
69053;SDS011;56125;52.242;4.756;2024-02-21T05:49:53;3.08;;;1.40;;
69053;SDS011;56125;52.242;4.756;2024-02-21T05:54:54;3.10;;;1.63;;
69053;SDS011;56125;52.242;4.756;2024-02-21T05:59:55;3.80;;;1.40;;
69053;SDS011;56125;52.242;4.756;2024-02-21T06:04:56;4.43;;;1.77;;
69053;SDS011;56125;52.242;4.756;2024-02-21T06:09:57;3.28;;;1.83;;
69053;SDS011;56125;52.242;4.756;2024-02-21T06:14:58;3.27;;;1.33;;
69053;SDS011;56125;52.242;4.756;2024-02-21T06:20:00;4.15;;;1.85;;
69053;SDS011;56125;52.242;4.756;2024-02-21T06:25:01;2.50;;;1.73;;
69053;SDS011;56125;52.242;4.756;2024-02-21T06:30:02;4.07;;;1.85;;
69053;SDS011;56125;52.242;4.756;2024-02-21T06:35:04;3.27;;;1.47;;
69053;SDS011;56125;52.242;4.756;2024-02-21T06:40:06;2.08;;;1.45;;
69053;SDS011;56125;52.242;4.756;2024-02-21T06:45:07;5.13;;;2.07;;
69053;SDS011;56125;52.242;4.756;2024-02-21T06:50:09;3.70;;;1.60;;
69053;SDS011;56125;52.242;4.756;2024-02-21T06:55:10;2.77;;;1.73;;
69053;SDS011;56125;52.242;4.756;2024-02-21T07:00:12;3.50;;;1.75;;
69053;SDS011;56125;52.242;4.756;2024-02-21T07:05:14;3.40;;;1.97;;
69053;SDS011;56125;52.242;4.756;2024-02-21T07:10:15;4.03;;;1.85;;
69053;SDS011;56125;52.242;4.756;2024-02-21T07:15:16;4.00;;;2.10;;
69053;SDS011;56125;52.242;4.756;2024-02-21T07:20:17;2.47;;;1.92;;
69053;SDS011;56125;52.242;4.756;2024-02-21T07:25:18;4.17;;;2.33;;
69053;SDS011;56125;52.242;4.756;2024-02-21T07:30:19;3.33;;;2.05;;
69053;SDS011;56125;52.242;4.756;2024-02-21T07:35:20;3.27;;;2.30;;
69053;SDS011;56125;52.242;4.756;2024-02-21T07:40:21;4.88;;;2.35;;
69053;SDS011;56125;52.242;4.756;2024-02-21T07:45:22;3.40;;;2.23;;
69053;SDS011;56125;52.242;4.756;2024-02-21T07:50:24;3.33;;;2.13;;
69053;SDS011;56125;52.242;4.756;2024-02-21T07:55:25;2.60;;;1.97;;
69053;SDS011;56125;52.242;4.756;2024-02-21T08:00:26;3.50;;;2.40;;
69053;SDS011;56125;52.242;4.756;2024-02-21T08:05:27;3.37;;;2.30;;
69053;SDS011;56125;52.242;4.756;2024-02-21T08:10:30;4.20;;;2.15;;
69053;SDS011;56125;52.242;4.756;2024-02-21T08:15:31;5.73;;;2.70;;
69053;SDS011;56125;52.242;4.756;2024-02-21T08:20:34;4.28;;;2.53;;
69053;SDS011;56125;52.242;4.756;2024-02-21T08:25:35;2.53;;;2.30;;
69053;SDS011;56125;52.242;4.756;2024-02-21T08:30:36;2.85;;;1.88;;
69053;SDS011;56125;52.242;4.756;2024-02-21T08:35:37;6.60;;;2.53;;
69053;SDS011;56125;52.242;4.756;2024-02-21T08:40:38;5.32;;;2.90;;
69053;SDS011;56125;52.242;4.756;2024-02-21T08:45:39;4.20;;;2.77;;
69053;SDS011;56125;52.242;4.756;2024-02-21T08:50:40;3.92;;;2.45;;
69053;SDS011;56125;52.242;4.756;2024-02-21T08:55:41;5.23;;;3.00;;
69053;SDS011;56125;52.242;4.756;2024-02-21T09:00:44;3.63;;;2.55;;
69053;SDS011;56125;52.242;4.756;2024-02-21T09:05:46;3.87;;;2.70;;
69053;SDS011;56125;52.242;4.756;2024-02-21T09:10:47;6.03;;;2.80;;
69053;SDS011;56125;52.242;4.756;2024-02-21T09:15:48;4.60;;;2.43;;
69053;SDS011;56125;52.242;4.756;2024-02-21T09:20:49;3.92;;;2.70;;
69053;SDS011;56125;52.242;4.756;2024-02-21T09:25:50;4.97;;;3.00;;
69053;SDS011;56125;52.242;4.756;2024-02-21T09:30:51;3.85;;;2.63;;
69053;SDS011;56125;52.242;4.756;2024-02-21T09:35:52;3.80;;;2.80;;
69053;SDS011;56125;52.242;4.756;2024-02-21T09:46:18;4.00;;;3.20;;
69053;SDS011;56125;52.242;4.756;2024-02-21T09:51:19;3.38;;;2.80;;
69053;SDS011;56125;52.242;4.756;2024-02-21T09:56:22;5.53;;;3.07;;
69053;SDS011;56125;52.242;4.756;2024-02-21T10:01:23;5.75;;;2.90;;
69053;SDS011;56125;52.242;4.756;2024-02-21T10:06:24;4.70;;;2.80;;
69053;SDS011;56125;52.242;4.756;2024-02-21T10:11:25;4.13;;;3.08;;
69053;SDS011;56125;52.242;4.756;2024-02-21T10:16:27;3.53;;;2.80;;
69053;SDS011;56125;52.242;4.756;2024-02-21T10:21:28;3.83;;;2.97;;
69053;SDS011;56125;52.242;4.756;2024-02-21T10:26:30;4.40;;;3.23;;
69053;SDS011;56125;52.242;4.756;2024-02-21T10:31:31;4.13;;;2.83;;
69053;SDS011;56125;52.242;4.756;2024-02-21T10:36:32;5.10;;;2.97;;
69053;SDS011;56125;52.242;4.756;2024-02-21T10:41:33;3.88;;;2.83;;
69053;SDS011;56125;52.242;4.756;2024-02-21T10:46:34;5.83;;;2.97;;
69053;SDS011;56125;52.242;4.756;2024-02-21T10:51:39;3.78;;;2.63;;
69053;SDS011;56125;52.242;4.756;2024-02-21T10:56:43;3.67;;;2.73;;
69053;SDS011;56125;52.242;4.756;2024-02-21T11:01:46;4.20;;;2.95;;
69053;SDS011;56125;52.242;4.756;2024-02-21T11:06:48;3.73;;;2.03;;
69053;SDS011;56125;52.242;4.756;2024-02-21T11:11:50;3.63;;;2.63;;
69053;SDS011;56125;52.242;4.756;2024-02-21T11:16:51;2.53;;;2.17;;
69053;SDS011;56125;52.242;4.756;2024-02-21T11:21:53;3.63;;;2.38;;
69053;SDS011;56125;52.242;4.756;2024-02-21T11:32:35;3.28;;;2.40;;
69053;SDS011;56125;52.242;4.756;2024-02-21T11:37:36;3.03;;;2.23;;
69053;SDS011;56125;52.242;4.756;2024-02-21T11:42:37;3.08;;;2.30;;
69053;SDS011;56125;52.242;4.756;2024-02-21T11:47:38;5.73;;;2.30;;
69053;SDS011;56125;52.242;4.756;2024-02-21T11:52:41;3.10;;;2.33;;
69053;SDS011;56125;52.242;4.756;2024-02-21T11:57:42;2.77;;;2.30;;
69053;SDS011;56125;52.242;4.756;2024-02-21T12:02:43;3.83;;;2.28;;
69053;SDS011;56125;52.242;4.756;2024-02-21T12:07:46;3.70;;;2.13;;
69053;SDS011;56125;52.242;4.756;2024-02-21T12:12:47;2.80;;;2.15;;
69053;SDS011;56125;52.242;4.756;2024-02-21T12:17:48;2.60;;;2.00;;
69053;SDS011;56125;52.242;4.756;2024-02-21T12:22:52;2.42;;;2.05;;
69053;SDS011;56125;52.242;4.756;2024-02-21T12:27:54;3.90;;;2.03;;
69053;SDS011;56125;52.242;4.756;2024-02-21T12:32:56;4.78;;;1.80;;
69053;SDS011;56125;52.242;4.756;2024-02-21T12:37:59;3.43;;;2.20;;
69053;SDS011;56125;52.242;4.756;2024-02-21T12:43:01;2.72;;;1.90;;
69053;SDS011;56125;52.242;4.756;2024-02-21T12:48:03;3.43;;;2.07;;
69053;SDS011;56125;52.242;4.756;2024-02-21T12:53:04;2.60;;;1.88;;
69053;SDS011;56125;52.242;4.756;2024-02-21T12:58:06;2.20;;;2.00;;
69053;SDS011;56125;52.242;4.756;2024-02-21T13:03:07;2.50;;;2.00;;
69053;SDS011;56125;52.242;4.756;2024-02-21T13:08:12;2.43;;;2.00;;
69053;SDS011;56125;52.242;4.756;2024-02-21T13:13:13;2.17;;;1.73;;
69053;SDS011;56125;52.242;4.756;2024-02-21T13:18:14;2.50;;;2.20;;
69053;SDS011;56125;52.242;4.756;2024-02-21T13:23:15;4.40;;;2.20;;
69053;SDS011;56125;52.242;4.756;2024-02-21T13:28:17;2.60;;;2.13;;
69053;SDS011;56125;52.242;4.756;2024-02-21T13:33:18;3.17;;;2.30;;
69053;SDS011;56125;52.242;4.756;2024-02-21T13:38:19;3.23;;;2.57;;
69053;SDS011;56125;52.242;4.756;2024-02-21T13:43:20;3.15;;;2.03;;
69053;SDS011;56125;52.242;4.756;2024-02-21T13:48:22;4.50;;;2.50;;
69053;SDS011;56125;52.242;4.756;2024-02-21T13:53:23;3.13;;;2.50;;
69053;SDS011;56125;52.242;4.756;2024-02-21T13:58:24;2.50;;;2.27;;
69053;SDS011;56125;52.242;4.756;2024-02-21T14:03:26;3.30;;;2.50;;
69053;SDS011;56125;52.242;4.756;2024-02-21T14:08:27;3.40;;;2.33;;
69053;SDS011;56125;52.242;4.756;2024-02-21T14:13:28;2.80;;;2.05;;
69053;SDS011;56125;52.242;4.756;2024-02-21T14:18:29;2.80;;;2.27;;
69053;SDS011;56125;52.242;4.756;2024-02-21T14:23:30;2.25;;;2.05;;
69053;SDS011;56125;52.242;4.756;2024-02-21T14:28:33;3.13;;;2.60;;
69053;SDS011;56125;52.242;4.756;2024-02-21T14:33:35;3.80;;;1.90;;
69053;SDS011;56125;52.242;4.756;2024-02-21T14:38:36;3.00;;;2.23;;
69053;SDS011;56125;52.242;4.756;2024-02-21T14:43:37;3.55;;;2.28;;
69053;SDS011;56125;52.242;4.756;2024-02-21T14:48:39;2.33;;;2.03;;
69053;SDS011;56125;52.242;4.756;2024-02-21T14:53:40;4.85;;;2.15;;
69053;SDS011;56125;52.242;4.756;2024-02-21T14:58:41;2.97;;;1.90;;
69053;SDS011;56125;52.242;4.756;2024-02-21T15:03:42;4.50;;;2.25;;
69053;SDS011;56125;52.242;4.756;2024-02-21T15:08:43;3.47;;;1.90;;
69053;SDS011;56125;52.242;4.756;2024-02-21T15:13:44;5.25;;;1.88;;
69053;SDS011;56125;52.242;4.756;2024-02-21T15:18:46;2.97;;;2.40;;
69053;SDS011;56125;52.242;4.756;2024-02-21T15:23:47;3.78;;;2.22;;
69053;SDS011;56125;52.242;4.756;2024-02-21T15:28:48;3.40;;;2.43;;
69053;SDS011;56125;52.242;4.756;2024-02-21T15:33:50;4.18;;;2.28;;
69053;SDS011;56125;52.242;4.756;2024-02-21T15:38:52;4.10;;;2.17;;
69053;SDS011;56125;52.242;4.756;2024-02-21T15:43:53;2.80;;;2.00;;
69053;SDS011;56125;52.242;4.756;2024-02-21T15:48:55;5.03;;;2.10;;
69053;SDS011;56125;52.242;4.756;2024-02-21T15:53:56;3.83;;;2.00;;
69053;SDS011;56125;52.242;4.756;2024-02-21T15:58:59;4.30;;;2.20;;
69053;SDS011;56125;52.242;4.756;2024-02-21T16:04:00;2.78;;;2.10;;
69053;SDS011;56125;52.242;4.756;2024-02-21T16:09:01;2.53;;;2.07;;
69053;SDS011;56125;52.242;4.756;2024-02-21T16:14:05;2.78;;;1.70;;
69053;SDS011;56125;52.242;4.756;2024-02-21T16:19:06;2.57;;;2.00;;
69053;SDS011;56125;52.242;4.756;2024-02-21T16:24:08;3.22;;;1.88;;
69053;SDS011;56125;52.242;4.756;2024-02-21T16:29:09;6.93;;;2.33;;
69053;SDS011;56125;52.242;4.756;2024-02-21T16:34:10;4.93;;;2.40;;
69053;SDS011;56125;52.242;4.756;2024-02-21T16:39:11;4.57;;;2.30;;
69053;SDS011;56125;52.242;4.756;2024-02-21T16:44:12;7.78;;;2.15;;
69053;SDS011;56125;52.242;4.756;2024-02-21T16:49:14;3.97;;;1.90;;
69053;SDS011;56125;52.242;4.756;2024-02-21T16:54:21;2.88;;;1.58;;
69053;SDS011;56125;52.242;4.756;2024-02-21T16:59:23;3.17;;;1.70;;
69053;SDS011;56125;52.242;4.756;2024-02-21T17:04:24;5.28;;;1.80;;
69053;SDS011;56125;52.242;4.756;2024-02-21T17:09:25;3.37;;;2.20;;
69053;SDS011;56125;52.242;4.756;2024-02-21T17:14:26;2.72;;;1.70;;
69053;SDS011;56125;52.242;4.756;2024-02-21T17:19:27;3.60;;;1.87;;
69053;SDS011;56125;52.242;4.756;2024-02-21T17:24:28;3.80;;;1.80;;
69053;SDS011;56125;52.242;4.756;2024-02-21T17:29:29;3.07;;;1.60;;
69053;SDS011;56125;52.242;4.756;2024-02-21T17:34:31;4.93;;;1.80;;
69053;SDS011;56125;52.242;4.756;2024-02-21T17:39:32;3.63;;;1.57;;
69053;SDS011;56125;52.242;4.756;2024-02-21T17:44:33;2.70;;;1.67;;
69053;SDS011;56125;52.242;4.756;2024-02-21T17:49:36;3.07;;;1.60;;
69053;SDS011;56125;52.242;4.756;2024-02-21T17:54:37;4.65;;;1.88;;
69053;SDS011;56125;52.242;4.756;2024-02-21T17:59:40;2.23;;;1.70;;
69053;SDS011;56125;52.242;4.756;2024-02-21T18:04:42;4.50;;;1.75;;
69053;SDS011;56125;52.242;4.756;2024-02-21T18:09:43;3.73;;;2.03;;
69053;SDS011;56125;52.242;4.756;2024-02-21T18:14:44;3.00;;;1.65;;
69053;SDS011;56125;52.242;4.756;2024-02-21T18:19:46;4.90;;;1.77;;
69053;SDS011;56125;52.242;4.756;2024-02-21T18:24:47;4.68;;;1.85;;
69053;SDS011;56125;52.242;4.756;2024-02-21T18:29:48;2.57;;;1.60;;
69053;SDS011;56125;52.242;4.756;2024-02-21T18:34:49;2.17;;;1.52;;
69053;SDS011;56125;52.242;4.756;2024-02-21T18:39:50;2.30;;;1.60;;
69053;SDS011;56125;52.242;4.756;2024-02-21T18:44:51;2.38;;;1.52;;
69053;SDS011;56125;52.242;4.756;2024-02-21T18:49:54;3.83;;;1.73;;
69053;SDS011;56125;52.242;4.756;2024-02-21T18:54:55;2.05;;;1.38;;
69053;SDS011;56125;52.242;4.756;2024-02-21T18:59:56;2.83;;;1.47;;
69053;SDS011;56125;52.242;4.756;2024-02-21T19:04:57;2.38;;;1.80;;
69053;SDS011;56125;52.242;4.756;2024-02-21T19:09:58;2.30;;;1.90;;
69053;SDS011;56125;52.242;4.756;2024-02-21T19:15:00;3.22;;;2.00;;
69053;SDS011;56125;52.242;4.756;2024-02-21T19:20:01;2.03;;;1.40;;
69053;SDS011;56125;52.242;4.756;2024-02-21T19:25:02;2.15;;;1.50;;
69053;SDS011;56125;52.242;4.756;2024-02-21T19:30:07;2.40;;;1.60;;
69053;SDS011;56125;52.242;4.756;2024-02-21T19:35:11;2.88;;;1.75;;
69053;SDS011;56125;52.242;4.756;2024-02-21T19:40:12;2.60;;;1.80;;
69053;SDS011;56125;52.242;4.756;2024-02-21T19:45:13;5.53;;;1.80;;
69053;SDS011;56125;52.242;4.756;2024-02-21T19:50:15;14.07;;;1.90;;
69053;SDS011;56125;52.242;4.756;2024-02-21T19:55:21;1.85;;;1.30;;
69053;SDS011;56125;52.242;4.756;2024-02-21T20:00:22;3.23;;;1.57;;
69053;SDS011;56125;52.242;4.756;2024-02-21T20:05:23;3.55;;;1.70;;
69053;SDS011;56125;52.242;4.756;2024-02-21T20:10:25;2.17;;;1.33;;
69053;SDS011;56125;52.242;4.756;2024-02-21T20:15:26;1.95;;;1.13;;
69053;SDS011;56125;52.242;4.756;2024-02-21T20:20:28;2.13;;;1.53;;
69053;SDS011;56125;52.242;4.756;2024-02-21T20:25:31;2.72;;;1.23;;
69053;SDS011;56125;52.242;4.756;2024-02-21T20:30:32;2.30;;;1.40;;
69053;SDS011;56125;52.242;4.756;2024-02-21T20:35:33;2.58;;;1.40;;
69053;SDS011;56125;52.242;4.756;2024-02-21T20:40:34;2.30;;;1.57;;
69053;SDS011;56125;52.242;4.756;2024-02-21T20:45:35;1.88;;;1.35;;
69053;SDS011;56125;52.242;4.756;2024-02-21T20:50:36;2.07;;;1.40;;
69053;SDS011;56125;52.242;4.756;2024-02-21T20:55:37;1.77;;;1.25;;
69053;SDS011;56125;52.242;4.756;2024-02-21T21:00:40;1.60;;;1.23;;
69053;SDS011;56125;52.242;4.756;2024-02-21T21:05:41;2.67;;;1.30;;
69053;SDS011;56125;52.242;4.756;2024-02-21T21:10:43;1.40;;;1.13;;
69053;SDS011;56125;52.242;4.756;2024-02-21T21:15:44;1.58;;;1.20;;
69053;SDS011;56125;52.242;4.756;2024-02-21T21:20:45;2.13;;;1.30;;
69053;SDS011;56125;52.242;4.756;2024-02-21T21:25:46;2.20;;;1.20;;
69053;SDS011;56125;52.242;4.756;2024-02-21T21:30:48;1.30;;;0.93;;
69053;SDS011;56125;52.242;4.756;2024-02-21T21:35:50;1.95;;;1.20;;
69053;SDS011;56125;52.242;4.756;2024-02-21T21:40:52;1.30;;;0.90;;
69053;SDS011;56125;52.242;4.756;2024-02-21T21:45:53;1.92;;;1.50;;
69053;SDS011;56125;52.242;4.756;2024-02-21T21:50:54;1.83;;;1.00;;
69053;SDS011;56125;52.242;4.756;2024-02-21T21:55:55;2.10;;;1.02;;
69053;SDS011;56125;52.242;4.756;2024-02-21T22:00:56;3.33;;;1.20;;
69053;SDS011;56125;52.242;4.756;2024-02-21T22:05:58;2.72;;;1.15;;
69053;SDS011;56125;52.242;4.756;2024-02-21T22:10:59;1.40;;;1.10;;
69053;SDS011;56125;52.242;4.756;2024-02-21T22:16:00;3.72;;;1.05;;
69053;SDS011;56125;52.242;4.756;2024-02-21T22:21:01;1.60;;;1.30;;
69053;SDS011;56125;52.242;4.756;2024-02-21T22:26:02;1.10;;;1.00;;
69053;SDS011;56125;52.242;4.756;2024-02-21T22:31:04;1.33;;;1.10;;
69053;SDS011;56125;52.242;4.756;2024-02-21T22:36:06;1.35;;;1.10;;
69053;SDS011;56125;52.242;4.756;2024-02-21T22:41:08;1.37;;;1.00;;
69053;SDS011;56125;52.242;4.756;2024-02-21T22:46:12;1.30;;;0.90;;
69053;SDS011;56125;52.242;4.756;2024-02-21T22:51:13;1.23;;;1.10;;
69053;SDS011;56125;52.242;4.756;2024-02-21T22:56:15;1.17;;;1.08;;
69053;SDS011;56125;52.242;4.756;2024-02-21T23:01:16;1.40;;;1.10;;
69053;SDS011;56125;52.242;4.756;2024-02-21T23:06:17;1.00;;;0.80;;
69053;SDS011;56125;52.242;4.756;2024-02-21T23:11:20;1.23;;;1.10;;
69053;SDS011;56125;52.242;4.756;2024-02-21T23:16:21;1.13;;;0.90;;
69053;SDS011;56125;52.242;4.756;2024-02-21T23:21:22;0.90;;;0.80;;
69053;SDS011;56125;52.242;4.756;2024-02-21T23:26:29;0.80;;;0.70;;
69053;SDS011;56125;52.242;4.756;2024-02-21T23:31:31;0.80;;;0.80;;
69053;SDS011;56125;52.242;4.756;2024-02-21T23:36:32;0.80;;;0.80;;
69053;SDS011;56125;52.242;4.756;2024-02-21T23:41:33;1.13;;;0.90;;
69053;SDS011;56125;52.242;4.756;2024-02-21T23:46:34;0.93;;;0.80;;
69053;SDS011;56125;52.242;4.756;2024-02-21T23:51:36;1.70;;;0.90;;
69053;SDS011;56125;52.242;4.756;2024-02-21T23:56:41;0.95;;;0.85;;
